sensor_id;sensor_type;location;lat;lon;timestamp;P1;durP1;ratioP1;P2;durP2;ratioP2
24567;SDS011;12731;52.182;8.716;2022-12-05T00:00:31;83.10;;;37.40;;
24567;SDS011;12731;52.182;8.716;2022-12-05T00:02:57;88.40;;;38.28;;
24567;SDS011;12731;52.182;8.716;2022-12-05T00:05:24;95.40;;;39.15;;
24567;SDS011;12731;52.182;8.716;2022-12-05T00:07:50;86.20;;;38.05;;
24567;SDS011;12731;52.182;8.716;2022-12-05T00:10:17;92.25;;;38.38;;
24567;SDS011;12731;52.182;8.716;2022-12-05T00:12:43;87.18;;;38.30;;
24567;SDS011;12731;52.182;8.716;2022-12-05T00:15:10;79.65;;;37.10;;
24567;SDS011;12731;52.182;8.716;2022-12-05T00:17:38;80.55;;;37.80;;
24567;SDS011;12731;52.182;8.716;2022-12-05T00:20:06;80.88;;;36.20;;
24567;SDS011;12731;52.182;8.716;2022-12-05T00:22:36;77.82;;;35.80;;
24567;SDS011;12731;52.182;8.716;2022-12-05T00:25:04;80.63;;;36.05;;
24567;SDS011;12731;52.182;8.716;2022-12-05T00:27:31;84.72;;;37.28;;
24567;SDS011;12731;52.182;8.716;2022-12-05T00:29:58;84.30;;;36.08;;
24567;SDS011;12731;52.182;8.716;2022-12-05T00:32:27;81.55;;;37.10;;
24567;SDS011;12731;52.182;8.716;2022-12-05T00:34:54;84.32;;;36.03;;
24567;SDS011;12731;52.182;8.716;2022-12-05T00:37:20;78.80;;;36.22;;
24567;SDS011;12731;52.182;8.716;2022-12-05T00:39:47;78.85;;;36.30;;
24567;SDS011;12731;52.182;8.716;2022-12-05T00:42:13;80.80;;;38.47;;
24567;SDS011;12731;52.182;8.716;2022-12-05T00:44:40;87.50;;;36.97;;
24567;SDS011;12731;52.182;8.716;2022-12-05T00:47:06;80.45;;;35.80;;
24567;SDS011;12731;52.182;8.716;2022-12-05T00:49:33;77.75;;;35.25;;
24567;SDS011;12731;52.182;8.716;2022-12-05T00:51:59;83.85;;;36.38;;
24567;SDS011;12731;52.182;8.716;2022-12-05T00:54:25;80.68;;;34.95;;
24567;SDS011;12731;52.182;8.716;2022-12-05T00:56:52;88.88;;;36.60;;
24567;SDS011;12731;52.182;8.716;2022-12-05T00:59:21;84.90;;;35.90;;
24567;SDS011;12731;52.182;8.716;2022-12-05T01:01:48;85.82;;;36.30;;
24567;SDS011;12731;52.182;8.716;2022-12-05T01:04:17;88.80;;;37.53;;
24567;SDS011;12731;52.182;8.716;2022-12-05T01:06:52;80.95;;;35.92;;
24567;SDS011;12731;52.182;8.716;2022-12-05T01:09:20;87.72;;;37.65;;
24567;SDS011;12731;52.182;8.716;2022-12-05T01:11:47;88.40;;;36.67;;
24567;SDS011;12731;52.182;8.716;2022-12-05T01:14:15;86.72;;;36.35;;
24567;SDS011;12731;52.182;8.716;2022-12-05T01:16:43;90.43;;;39.60;;
24567;SDS011;12731;52.182;8.716;2022-12-05T01:19:12;88.00;;;37.65;;
24567;SDS011;12731;52.182;8.716;2022-12-05T01:21:43;88.85;;;37.60;;
24567;SDS011;12731;52.182;8.716;2022-12-05T01:24:10;80.10;;;35.83;;
24567;SDS011;12731;52.182;8.716;2022-12-05T01:26:37;90.13;;;38.35;;
24567;SDS011;12731;52.182;8.716;2022-12-05T01:29:03;87.07;;;37.63;;
24567;SDS011;12731;52.182;8.716;2022-12-05T01:31:31;80.80;;;36.33;;
24567;SDS011;12731;52.182;8.716;2022-12-05T01:34:00;86.25;;;38.10;;
24567;SDS011;12731;52.182;8.716;2022-12-05T01:36:28;89.18;;;37.38;;
24567;SDS011;12731;52.182;8.716;2022-12-05T01:38:55;84.30;;;37.67;;
24567;SDS011;12731;52.182;8.716;2022-12-05T01:41:23;84.78;;;37.08;;
24567;SDS011;12731;52.182;8.716;2022-12-05T01:46:32;81.05;;;35.53;;
24567;SDS011;12731;52.182;8.716;2022-12-05T01:49:02;84.28;;;37.22;;
24567;SDS011;12731;52.182;8.716;2022-12-05T01:51:31;78.35;;;36.45;;
24567;SDS011;12731;52.182;8.716;2022-12-05T01:53:59;74.15;;;34.22;;
24567;SDS011;12731;52.182;8.716;2022-12-05T01:56:26;80.22;;;34.65;;
24567;SDS011;12731;52.182;8.716;2022-12-05T01:58:52;76.97;;;33.50;;
24567;SDS011;12731;52.182;8.716;2022-12-05T02:01:20;74.15;;;32.60;;
24567;SDS011;12731;52.182;8.716;2022-12-05T02:03:47;77.70;;;34.17;;
24567;SDS011;12731;52.182;8.716;2022-12-05T02:06:15;74.75;;;34.40;;
24567;SDS011;12731;52.182;8.716;2022-12-05T02:08:42;71.85;;;32.30;;
24567;SDS011;12731;52.182;8.716;2022-12-05T02:11:09;68.03;;;32.50;;
24567;SDS011;12731;52.182;8.716;2022-12-05T02:24:44;71.22;;;31.90;;
24567;SDS011;12731;52.182;8.716;2022-12-05T02:28:04;66.80;;;31.95;;
24567;SDS011;12731;52.182;8.716;2022-12-05T02:30:15;68.18;;;31.83;;
24567;SDS011;12731;52.182;8.716;2022-12-05T02:44:11;65.22;;;30.90;;
24567;SDS011;12731;52.182;8.716;2022-12-05T02:46:39;69.75;;;33.33;;
24567;SDS011;12731;52.182;8.716;2022-12-05T02:49:07;67.60;;;31.90;;
24567;SDS011;12731;52.182;8.716;2022-12-05T02:51:40;71.22;;;32.63;;
24567;SDS011;12731;52.182;8.716;2022-12-05T02:54:09;65.95;;;30.85;;
24567;SDS011;12731;52.182;8.716;2022-12-05T02:56:37;70.28;;;32.42;;
24567;SDS011;12731;52.182;8.716;2022-12-05T02:59:05;69.55;;;31.52;;
24567;SDS011;12731;52.182;8.716;2022-12-05T03:01:32;68.78;;;31.70;;
24567;SDS011;12731;52.182;8.716;2022-12-05T03:03:59;74.68;;;32.92;;
24567;SDS011;12731;52.182;8.716;2022-12-05T03:06:49;65.38;;;31.63;;
24567;SDS011;12731;52.182;8.716;2022-12-05T03:12:09;55.20;;;25.10;;
24567;SDS011;12731;52.182;8.716;2022-12-05T03:14:50;71.47;;;33.38;;
24567;SDS011;12731;52.182;8.716;2022-12-05T03:17:23;71.20;;;32.80;;
24567;SDS011;12731;52.182;8.716;2022-12-05T03:22:25;73.40;;;33.05;;
24567;SDS011;12731;52.182;8.716;2022-12-05T03:24:55;72.32;;;33.38;;
24567;SDS011;12731;52.182;8.716;2022-12-05T03:28:05;67.78;;;32.97;;
24567;SDS011;12731;52.182;8.716;2022-12-05T03:30:22;69.43;;;31.45;;
24567;SDS011;12731;52.182;8.716;2022-12-05T03:33:02;70.82;;;32.83;;
24567;SDS011;12731;52.182;8.716;2022-12-05T03:35:42;76.97;;;34.30;;
24567;SDS011;12731;52.182;8.716;2022-12-05T03:38:13;72.15;;;33.03;;
24567;SDS011;12731;52.182;8.716;2022-12-05T03:40:51;75.53;;;33.17;;
24567;SDS011;12731;52.182;8.716;2022-12-05T03:43:21;71.63;;;31.70;;
24567;SDS011;12731;52.182;8.716;2022-12-05T03:45:55;71.45;;;33.03;;
24567;SDS011;12731;52.182;8.716;2022-12-05T03:48:36;71.45;;;33.33;;
24567;SDS011;12731;52.182;8.716;2022-12-05T03:51:05;76.93;;;33.17;;
24567;SDS011;12731;52.182;8.716;2022-12-05T03:53:40;72.20;;;33.40;;
24567;SDS011;12731;52.182;8.716;2022-12-05T03:56:11;72.63;;;32.58;;
24567;SDS011;12731;52.182;8.716;2022-12-05T03:58:52;67.80;;;32.35;;
24567;SDS011;12731;52.182;8.716;2022-12-05T04:01:23;66.32;;;30.70;;
24567;SDS011;12731;52.182;8.716;2022-12-05T04:03:54;66.35;;;31.08;;
24567;SDS011;12731;52.182;8.716;2022-12-05T04:08:58;67.40;;;31.67;;
24567;SDS011;12731;52.182;8.716;2022-12-05T04:11:33;77.28;;;34.35;;
24567;SDS011;12731;52.182;8.716;2022-12-05T04:14:04;73.22;;;32.13;;
24567;SDS011;12731;52.182;8.716;2022-12-05T04:16:44;71.43;;;33.38;;
24567;SDS011;12731;52.182;8.716;2022-12-05T04:22:32;70.47;;;32.83;;
24567;SDS011;12731;52.182;8.716;2022-12-05T04:25:00;73.50;;;33.80;;
24567;SDS011;12731;52.182;8.716;2022-12-05T04:28:03;74.03;;;34.78;;
24567;SDS011;12731;52.182;8.716;2022-12-05T04:30:38;72.95;;;33.47;;
24567;SDS011;12731;52.182;8.716;2022-12-05T04:36:03;69.72;;;32.35;;
24567;SDS011;12731;52.182;8.716;2022-12-05T04:38:51;72.95;;;32.47;;
24567;SDS011;12731;52.182;8.716;2022-12-05T04:41:30;72.78;;;33.20;;
24567;SDS011;12731;52.182;8.716;2022-12-05T04:44:00;66.70;;;32.80;;
24567;SDS011;12731;52.182;8.716;2022-12-05T04:46:30;68.80;;;32.05;;
24567;SDS011;12731;52.182;8.716;2022-12-05T04:48:59;65.22;;;31.98;;
24567;SDS011;12731;52.182;8.716;2022-12-05T04:51:28;69.78;;;31.73;;
24567;SDS011;12731;52.182;8.716;2022-12-05T04:53:56;65.82;;;31.65;;
24567;SDS011;12731;52.182;8.716;2022-12-05T04:56:26;77.70;;;32.00;;
24567;SDS011;12731;52.182;8.716;2022-12-05T04:58:56;67.07;;;30.83;;
24567;SDS011;12731;52.182;8.716;2022-12-05T05:01:42;66.88;;;29.95;;
24567;SDS011;12731;52.182;8.716;2022-12-05T05:04:13;59.25;;;29.27;;
24567;SDS011;12731;52.182;8.716;2022-12-05T05:06:42;63.30;;;30.42;;
24567;SDS011;12731;52.182;8.716;2022-12-05T05:09:09;60.30;;;29.75;;
24567;SDS011;12731;52.182;8.716;2022-12-05T05:11:36;63.75;;;31.27;;
24567;SDS011;12731;52.182;8.716;2022-12-05T05:14:02;59.50;;;29.55;;
24567;SDS011;12731;52.182;8.716;2022-12-05T05:16:34;57.88;;;29.70;;
24567;SDS011;12731;52.182;8.716;2022-12-05T05:19:02;57.72;;;29.35;;
24567;SDS011;12731;52.182;8.716;2022-12-05T05:21:39;63.05;;;29.52;;
24567;SDS011;12731;52.182;8.716;2022-12-05T05:24:07;59.20;;;29.33;;
24567;SDS011;12731;52.182;8.716;2022-12-05T05:26:36;63.53;;;30.00;;
24567;SDS011;12731;52.182;8.716;2022-12-05T05:29:05;60.33;;;29.77;;
24567;SDS011;12731;52.182;8.716;2022-12-05T05:31:32;65.82;;;30.40;;
24567;SDS011;12731;52.182;8.716;2022-12-05T05:33:59;57.92;;;30.27;;
24567;SDS011;12731;52.182;8.716;2022-12-05T05:36:34;60.05;;;29.33;;
24567;SDS011;12731;52.182;8.716;2022-12-05T05:39:01;64.97;;;31.15;;
24567;SDS011;12731;52.182;8.716;2022-12-05T05:41:31;61.85;;;30.70;;
24567;SDS011;12731;52.182;8.716;2022-12-05T05:44:02;57.80;;;29.58;;
24567;SDS011;12731;52.182;8.716;2022-12-05T05:46:30;67.50;;;31.15;;
24567;SDS011;12731;52.182;8.716;2022-12-05T05:48:58;61.67;;;29.73;;
24567;SDS011;12731;52.182;8.716;2022-12-05T05:51:24;58.97;;;30.55;;
24567;SDS011;12731;52.182;8.716;2022-12-05T05:53:53;62.60;;;30.13;;
24567;SDS011;12731;52.182;8.716;2022-12-05T05:56:19;57.28;;;29.92;;
24567;SDS011;12731;52.182;8.716;2022-12-05T05:58:54;61.72;;;30.40;;
24567;SDS011;12731;52.182;8.716;2022-12-05T06:01:21;61.80;;;29.55;;
24567;SDS011;12731;52.182;8.716;2022-12-05T06:03:48;58.95;;;30.95;;
24567;SDS011;12731;52.182;8.716;2022-12-05T06:06:19;69.80;;;32.05;;
24567;SDS011;12731;52.182;8.716;2022-12-05T06:08:46;66.10;;;31.83;;
24567;SDS011;12731;52.182;8.716;2022-12-05T06:11:14;77.65;;;32.88;;
24567;SDS011;12731;52.182;8.716;2022-12-05T06:13:51;62.22;;;31.25;;
24567;SDS011;12731;52.182;8.716;2022-12-05T06:16:18;69.70;;;32.53;;
24567;SDS011;12731;52.182;8.716;2022-12-05T06:18:44;70.40;;;32.78;;
24567;SDS011;12731;52.182;8.716;2022-12-05T06:21:11;59.28;;;31.08;;
24567;SDS011;12731;52.182;8.716;2022-12-05T06:23:41;69.03;;;32.40;;
24567;SDS011;12731;52.182;8.716;2022-12-05T06:26:09;62.53;;;30.48;;
24567;SDS011;12731;52.182;8.716;2022-12-05T06:28:37;56.75;;;28.67;;
24567;SDS011;12731;52.182;8.716;2022-12-05T06:31:11;62.90;;;29.85;;
24567;SDS011;12731;52.182;8.716;2022-12-05T06:33:39;60.67;;;29.52;;
24567;SDS011;12731;52.182;8.716;2022-12-05T06:36:06;54.35;;;29.90;;
24567;SDS011;12731;52.182;8.716;2022-12-05T06:38:34;55.28;;;29.35;;
24567;SDS011;12731;52.182;8.716;2022-12-05T06:41:08;54.67;;;28.77;;
24567;SDS011;12731;52.182;8.716;2022-12-05T06:43:36;55.55;;;28.38;;
24567;SDS011;12731;52.182;8.716;2022-12-05T06:46:06;54.10;;;28.33;;
24567;SDS011;12731;52.182;8.716;2022-12-05T06:48:33;55.08;;;29.33;;
24567;SDS011;12731;52.182;8.716;2022-12-05T06:51:00;51.05;;;27.75;;
24567;SDS011;12731;52.182;8.716;2022-12-05T06:53:26;52.03;;;27.60;;
24567;SDS011;12731;52.182;8.716;2022-12-05T06:56:00;46.03;;;26.88;;
24567;SDS011;12731;52.182;8.716;2022-12-05T06:58:27;48.28;;;26.40;;
24567;SDS011;12731;52.182;8.716;2022-12-05T07:00:54;54.75;;;26.67;;
24567;SDS011;12731;52.182;8.716;2022-12-05T07:03:39;46.50;;;24.90;;
24567;SDS011;12731;52.182;8.716;2022-12-05T07:06:06;45.55;;;25.17;;
24567;SDS011;12731;52.182;8.716;2022-12-05T07:08:33;43.22;;;23.65;;
24567;SDS011;12731;52.182;8.716;2022-12-05T07:11:00;43.42;;;24.88;;
24567;SDS011;12731;52.182;8.716;2022-12-05T07:13:27;43.65;;;24.17;;
24567;SDS011;12731;52.182;8.716;2022-12-05T07:15:53;45.78;;;24.30;;
24567;SDS011;12731;52.182;8.716;2022-12-05T07:18:20;41.95;;;23.88;;
24567;SDS011;12731;52.182;8.716;2022-12-05T07:20:54;47.85;;;23.63;;
24567;SDS011;12731;52.182;8.716;2022-12-05T07:23:40;42.25;;;23.33;;
24567;SDS011;12731;52.182;8.716;2022-12-05T07:26:09;41.40;;;22.55;;
24567;SDS011;12731;52.182;8.716;2022-12-05T07:28:37;39.60;;;21.98;;
24567;SDS011;12731;52.182;8.716;2022-12-05T07:31:07;37.90;;;21.95;;
24567;SDS011;12731;52.182;8.716;2022-12-05T07:33:35;35.28;;;20.65;;
24567;SDS011;12731;52.182;8.716;2022-12-05T07:36:05;41.03;;;21.75;;
24567;SDS011;12731;52.182;8.716;2022-12-05T07:38:34;36.70;;;20.83;;
24567;SDS011;12731;52.182;8.716;2022-12-05T07:41:04;34.05;;;20.45;;
24567;SDS011;12731;52.182;8.716;2022-12-05T07:43:38;37.55;;;22.67;;
24567;SDS011;12731;52.182;8.716;2022-12-05T07:46:05;36.50;;;20.85;;
24567;SDS011;12731;52.182;8.716;2022-12-05T07:48:32;33.45;;;19.35;;
24567;SDS011;12731;52.182;8.716;2022-12-05T07:50:59;35.08;;;22.85;;
24567;SDS011;12731;52.182;8.716;2022-12-05T07:53:27;34.92;;;22.08;;
24567;SDS011;12731;52.182;8.716;2022-12-05T07:55:54;32.15;;;20.00;;
24567;SDS011;12731;52.182;8.716;2022-12-05T07:58:20;34.58;;;19.67;;
24567;SDS011;12731;52.182;8.716;2022-12-05T08:00:47;30.30;;;18.90;;
24567;SDS011;12731;52.182;8.716;2022-12-05T08:03:13;31.45;;;19.30;;
24567;SDS011;12731;52.182;8.716;2022-12-05T08:05:39;33.22;;;19.27;;
24567;SDS011;12731;52.182;8.716;2022-12-05T08:08:06;34.70;;;19.02;;
24567;SDS011;12731;52.182;8.716;2022-12-05T08:10:33;34.42;;;18.63;;
24567;SDS011;12731;52.182;8.716;2022-12-05T08:13:00;32.05;;;18.85;;
24567;SDS011;12731;52.182;8.716;2022-12-05T08:15:26;29.02;;;17.85;;
24567;SDS011;12731;52.182;8.716;2022-12-05T08:17:53;27.63;;;17.17;;
24567;SDS011;12731;52.182;8.716;2022-12-05T08:20:19;30.15;;;18.40;;
24567;SDS011;12731;52.182;8.716;2022-12-05T08:22:46;28.75;;;18.20;;
24567;SDS011;12731;52.182;8.716;2022-12-05T08:25:12;30.05;;;17.55;;
24567;SDS011;12731;52.182;8.716;2022-12-05T08:27:38;29.23;;;17.75;;
24567;SDS011;12731;52.182;8.716;2022-12-05T08:30:05;30.83;;;18.08;;
24567;SDS011;12731;52.182;8.716;2022-12-05T08:32:32;29.08;;;18.35;;
24567;SDS011;12731;52.182;8.716;2022-12-05T08:34:58;28.58;;;17.35;;
24567;SDS011;12731;52.182;8.716;2022-12-05T08:37:24;29.25;;;17.70;;
24567;SDS011;12731;52.182;8.716;2022-12-05T08:39:51;27.85;;;17.48;;
24567;SDS011;12731;52.182;8.716;2022-12-05T08:42:17;28.48;;;17.45;;
24567;SDS011;12731;52.182;8.716;2022-12-05T08:44:44;26.75;;;16.77;;
24567;SDS011;12731;52.182;8.716;2022-12-05T08:47:10;26.48;;;17.10;;
24567;SDS011;12731;52.182;8.716;2022-12-05T08:49:37;29.65;;;17.58;;
24567;SDS011;12731;52.182;8.716;2022-12-05T08:52:03;28.00;;;16.98;;
24567;SDS011;12731;52.182;8.716;2022-12-05T08:54:30;24.42;;;16.45;;
24567;SDS011;12731;52.182;8.716;2022-12-05T08:56:56;24.67;;;16.73;;
24567;SDS011;12731;52.182;8.716;2022-12-05T08:59:24;27.60;;;17.05;;
24567;SDS011;12731;52.182;8.716;2022-12-05T09:01:50;29.23;;;17.13;;
24567;SDS011;12731;52.182;8.716;2022-12-05T09:04:17;27.75;;;17.15;;
24567;SDS011;12731;52.182;8.716;2022-12-05T09:06:43;35.90;;;22.15;;
24567;SDS011;12731;52.182;8.716;2022-12-05T09:09:10;39.50;;;24.40;;
24567;SDS011;12731;52.182;8.716;2022-12-05T09:11:38;41.58;;;24.08;;
24567;SDS011;12731;52.182;8.716;2022-12-05T09:14:11;37.50;;;23.02;;
24567;SDS011;12731;52.182;8.716;2022-12-05T09:16:38;36.47;;;23.13;;
24567;SDS011;12731;52.182;8.716;2022-12-05T09:19:09;33.42;;;21.42;;
24567;SDS011;12731;52.182;8.716;2022-12-05T09:21:37;38.88;;;22.17;;
24567;SDS011;12731;52.182;8.716;2022-12-05T09:24:04;36.63;;;22.40;;
24567;SDS011;12731;52.182;8.716;2022-12-05T09:26:30;36.88;;;22.05;;
24567;SDS011;12731;52.182;8.716;2022-12-05T09:28:57;36.25;;;22.20;;
24567;SDS011;12731;52.182;8.716;2022-12-05T09:31:24;36.95;;;22.42;;
24567;SDS011;12731;52.182;8.716;2022-12-05T09:33:52;38.25;;;22.45;;
24567;SDS011;12731;52.182;8.716;2022-12-05T09:36:20;42.33;;;22.85;;
24567;SDS011;12731;52.182;8.716;2022-12-05T09:38:48;49.83;;;25.00;;
24567;SDS011;12731;52.182;8.716;2022-12-05T09:41:29;37.72;;;22.98;;
24567;SDS011;12731;52.182;8.716;2022-12-05T09:52:45;32.05;;;20.80;;
24567;SDS011;12731;52.182;8.716;2022-12-05T09:55:14;35.95;;;22.13;;
24567;SDS011;12731;52.182;8.716;2022-12-05T09:57:53;36.53;;;20.92;;
24567;SDS011;12731;52.182;8.716;2022-12-05T10:00:21;33.67;;;20.40;;
24567;SDS011;12731;52.182;8.716;2022-12-05T10:05:46;45.65;;;22.83;;
24567;SDS011;12731;52.182;8.716;2022-12-05T10:16:02;30.05;;;19.98;;
24567;SDS011;12731;52.182;8.716;2022-12-05T10:21:11;33.72;;;20.70;;
24567;SDS011;12731;52.182;8.716;2022-12-05T10:26:25;38.78;;;23.20;;
24567;SDS011;12731;52.182;8.716;2022-12-05T10:31:48;34.13;;;21.55;;
24567;SDS011;12731;52.182;8.716;2022-12-05T10:34:27;30.65;;;19.75;;
24567;SDS011;12731;52.182;8.716;2022-12-05T10:37:01;28.67;;;20.10;;
24567;SDS011;12731;52.182;8.716;2022-12-05T10:39:35;30.92;;;20.55;;
24567;SDS011;12731;52.182;8.716;2022-12-05T10:42:02;31.85;;;21.67;;
24567;SDS011;12731;52.182;8.716;2022-12-05T10:44:30;30.23;;;20.17;;
24567;SDS011;12731;52.182;8.716;2022-12-05T10:46:57;31.02;;;19.48;;
24567;SDS011;12731;52.182;8.716;2022-12-05T10:49:24;27.98;;;18.52;;
24567;SDS011;12731;52.182;8.716;2022-12-05T10:51:51;26.17;;;18.17;;
24567;SDS011;12731;52.182;8.716;2022-12-05T10:54:21;26.08;;;18.20;;
24567;SDS011;12731;52.182;8.716;2022-12-05T10:56:51;30.50;;;20.42;;
24567;SDS011;12731;52.182;8.716;2022-12-05T10:59:22;27.48;;;19.48;;
24567;SDS011;12731;52.182;8.716;2022-12-05T11:01:52;33.58;;;21.33;;
24567;SDS011;12731;52.182;8.716;2022-12-05T11:06:59;34.25;;;22.10;;
24567;SDS011;12731;52.182;8.716;2022-12-05T11:09:31;31.58;;;22.08;;
24567;SDS011;12731;52.182;8.716;2022-12-05T11:12:18;33.15;;;21.40;;
24567;SDS011;12731;52.182;8.716;2022-12-05T11:14:52;32.75;;;21.67;;
24567;SDS011;12731;52.182;8.716;2022-12-05T11:17:24;31.33;;;20.92;;
24567;SDS011;12731;52.182;8.716;2022-12-05T11:20:02;28.95;;;20.85;;
24567;SDS011;12731;52.182;8.716;2022-12-05T11:25:35;33.15;;;20.70;;
24567;SDS011;12731;52.182;8.716;2022-12-05T11:31:29;24.77;;;17.60;;
24567;SDS011;12731;52.182;8.716;2022-12-05T11:33:36;25.42;;;17.08;;
24567;SDS011;12731;52.182;8.716;2022-12-05T11:38:47;27.52;;;19.27;;
24567;SDS011;12731;52.182;8.716;2022-12-05T11:47:09;28.08;;;20.00;;
24567;SDS011;12731;52.182;8.716;2022-12-05T11:52:53;27.33;;;18.70;;
24567;SDS011;12731;52.182;8.716;2022-12-05T11:55:41;28.27;;;19.10;;
24567;SDS011;12731;52.182;8.716;2022-12-05T11:58:22;23.23;;;16.80;;
24567;SDS011;12731;52.182;8.716;2022-12-05T12:01:39;22.92;;;16.83;;
24567;SDS011;12731;52.182;8.716;2022-12-05T12:06:59;24.67;;;17.65;;
24567;SDS011;12731;52.182;8.716;2022-12-05T12:12:35;27.65;;;19.42;;
24567;SDS011;12731;52.182;8.716;2022-12-05T12:18:15;24.67;;;17.95;;
24567;SDS011;12731;52.182;8.716;2022-12-05T12:21:23;28.20;;;20.00;;
24567;SDS011;12731;52.182;8.716;2022-12-05T12:24:00;28.27;;;19.33;;
24567;SDS011;12731;52.182;8.716;2022-12-05T12:26:49;26.40;;;18.67;;
24567;SDS011;12731;52.182;8.716;2022-12-05T12:40:53;31.38;;;20.10;;
24567;SDS011;12731;52.182;8.716;2022-12-05T12:43:28;27.88;;;20.67;;
24567;SDS011;12731;52.182;8.716;2022-12-05T12:46:57;29.08;;;21.50;;
24567;SDS011;12731;52.182;8.716;2022-12-05T12:52:03;26.60;;;18.13;;
24567;SDS011;12731;52.182;8.716;2022-12-05T12:54:43;26.80;;;17.85;;
24567;SDS011;12731;52.182;8.716;2022-12-05T12:57:45;28.40;;;20.65;;
24567;SDS011;12731;52.182;8.716;2022-12-05T13:03:27;26.20;;;18.73;;
24567;SDS011;12731;52.182;8.716;2022-12-05T13:05:58;24.73;;;17.38;;
24567;SDS011;12731;52.182;8.716;2022-12-05T13:11:19;26.55;;;18.42;;
24567;SDS011;12731;52.182;8.716;2022-12-05T13:13:48;24.00;;;17.50;;
24567;SDS011;12731;52.182;8.716;2022-12-05T13:16:21;22.75;;;16.45;;
24567;SDS011;12731;52.182;8.716;2022-12-05T13:18:50;24.83;;;18.38;;
24567;SDS011;12731;52.182;8.716;2022-12-05T13:21:17;24.48;;;19.30;;
24567;SDS011;12731;52.182;8.716;2022-12-05T13:23:48;24.52;;;18.95;;
24567;SDS011;12731;52.182;8.716;2022-12-05T13:26:15;21.40;;;16.67;;
24567;SDS011;12731;52.182;8.716;2022-12-05T13:28:50;21.83;;;16.42;;
24567;SDS011;12731;52.182;8.716;2022-12-05T13:31:19;25.00;;;16.92;;
24567;SDS011;12731;52.182;8.716;2022-12-05T13:34:21;22.67;;;17.65;;
24567;SDS011;12731;52.182;8.716;2022-12-05T13:37:09;26.80;;;19.40;;
24567;SDS011;12731;52.182;8.716;2022-12-05T13:39:56;21.60;;;16.75;;
24567;SDS011;12731;52.182;8.716;2022-12-05T13:42:41;25.25;;;17.13;;
24567;SDS011;12731;52.182;8.716;2022-12-05T13:45:09;21.98;;;16.58;;
24567;SDS011;12731;52.182;8.716;2022-12-05T13:50:35;22.10;;;17.33;;
24567;SDS011;12731;52.182;8.716;2022-12-05T13:58:48;23.05;;;16.75;;
24567;SDS011;12731;52.182;8.716;2022-12-05T14:11:26;21.48;;;16.52;;
24567;SDS011;12731;52.182;8.716;2022-12-05T14:13:53;23.52;;;17.80;;
24567;SDS011;12731;52.182;8.716;2022-12-05T14:19:03;22.95;;;17.38;;
24567;SDS011;12731;52.182;8.716;2022-12-05T14:21:40;22.90;;;18.05;;
24567;SDS011;12731;52.182;8.716;2022-12-05T14:29:36;29.65;;;21.45;;
24567;SDS011;12731;52.182;8.716;2022-12-05T14:32:35;27.38;;;18.25;;
24567;SDS011;12731;52.182;8.716;2022-12-05T14:35:04;24.45;;;17.77;;
24567;SDS011;12731;52.182;8.716;2022-12-05T14:37:41;21.15;;;16.13;;
24567;SDS011;12731;52.182;8.716;2022-12-05T14:43:28;22.35;;;16.73;;
24567;SDS011;12731;52.182;8.716;2022-12-05T14:54:07;17.90;;;13.75;;
24567;SDS011;12731;52.182;8.716;2022-12-05T14:56:41;17.63;;;13.55;;
24567;SDS011;12731;52.182;8.716;2022-12-05T14:59:44;18.85;;;14.02;;
24567;SDS011;12731;52.182;8.716;2022-12-05T15:02:16;20.95;;;16.42;;
24567;SDS011;12731;52.182;8.716;2022-12-05T15:04:50;23.25;;;17.00;;
24567;SDS011;12731;52.182;8.716;2022-12-05T15:07:26;21.52;;;17.23;;
24567;SDS011;12731;52.182;8.716;2022-12-05T15:10:01;27.85;;;20.15;;
24567;SDS011;12731;52.182;8.716;2022-12-05T15:12:37;32.03;;;23.15;;
24567;SDS011;12731;52.182;8.716;2022-12-05T15:17:46;32.08;;;22.02;;
24567;SDS011;12731;52.182;8.716;2022-12-05T15:20:17;27.63;;;19.90;;
24567;SDS011;12731;52.182;8.716;2022-12-05T15:23:03;31.05;;;21.77;;
24567;SDS011;12731;52.182;8.716;2022-12-05T15:26:05;31.60;;;21.30;;
24567;SDS011;12731;52.182;8.716;2022-12-05T15:29:02;31.88;;;20.10;;
24567;SDS011;12731;52.182;8.716;2022-12-05T15:31:37;30.40;;;19.92;;
24567;SDS011;12731;52.182;8.716;2022-12-05T15:34:12;31.17;;;21.73;;
24567;SDS011;12731;52.182;8.716;2022-12-05T15:40:01;30.02;;;21.52;;
24567;SDS011;12731;52.182;8.716;2022-12-05T15:42:41;31.63;;;20.98;;
24567;SDS011;12731;52.182;8.716;2022-12-05T15:50:12;35.55;;;26.55;;
24567;SDS011;12731;52.182;8.716;2022-12-05T15:55:12;32.92;;;23.08;;
24567;SDS011;12731;52.182;8.716;2022-12-05T15:57:42;29.05;;;20.55;;
24567;SDS011;12731;52.182;8.716;2022-12-05T16:00:14;29.83;;;20.65;;
24567;SDS011;12731;52.182;8.716;2022-12-05T16:02:44;30.17;;;21.23;;
24567;SDS011;12731;52.182;8.716;2022-12-05T16:05:16;28.85;;;20.30;;
24567;SDS011;12731;52.182;8.716;2022-12-05T16:07:45;29.15;;;21.05;;
24567;SDS011;12731;52.182;8.716;2022-12-05T16:10:12;28.27;;;20.45;;
24567;SDS011;12731;52.182;8.716;2022-12-05T16:12:39;29.67;;;21.15;;
24567;SDS011;12731;52.182;8.716;2022-12-05T16:15:14;29.40;;;21.20;;
24567;SDS011;12731;52.182;8.716;2022-12-05T16:17:46;30.38;;;21.35;;
24567;SDS011;12731;52.182;8.716;2022-12-05T16:22:45;29.05;;;20.70;;
24567;SDS011;12731;52.182;8.716;2022-12-05T16:25:14;24.88;;;18.90;;
24567;SDS011;12731;52.182;8.716;2022-12-05T16:27:41;25.60;;;18.52;;
24567;SDS011;12731;52.182;8.716;2022-12-05T16:32:43;26.05;;;20.35;;
24567;SDS011;12731;52.182;8.716;2022-12-05T16:38:04;25.38;;;20.83;;
24567;SDS011;12731;52.182;8.716;2022-12-05T16:40:32;34.35;;;28.88;;
24567;SDS011;12731;52.182;8.716;2022-12-05T16:45:59;30.88;;;21.90;;
24567;SDS011;12731;52.182;8.716;2022-12-05T16:51:39;35.65;;;24.75;;
24567;SDS011;12731;52.182;8.716;2022-12-05T16:54:06;35.65;;;24.42;;
24567;SDS011;12731;52.182;8.716;2022-12-05T16:56:33;39.58;;;26.85;;
24567;SDS011;12731;52.182;8.716;2022-12-05T16:59:03;32.70;;;23.45;;
24567;SDS011;12731;52.182;8.716;2022-12-05T17:01:30;38.45;;;25.83;;
24567;SDS011;12731;52.182;8.716;2022-12-05T17:04:03;35.88;;;24.73;;
24567;SDS011;12731;52.182;8.716;2022-12-05T17:06:30;43.88;;;33.28;;
24567;SDS011;12731;52.182;8.716;2022-12-05T17:08:57;65.75;;;45.30;;
24567;SDS011;12731;52.182;8.716;2022-12-05T17:11:25;54.60;;;38.75;;
24567;SDS011;12731;52.182;8.716;2022-12-05T17:13:52;103.00;;;72.45;;
24567;SDS011;12731;52.182;8.716;2022-12-05T17:16:20;82.10;;;57.05;;
24567;SDS011;12731;52.182;8.716;2022-12-05T17:18:46;51.47;;;36.47;;
24567;SDS011;12731;52.182;8.716;2022-12-05T17:21:17;55.58;;;39.97;;
24567;SDS011;12731;52.182;8.716;2022-12-05T17:23:45;32.50;;;23.17;;
24567;SDS011;12731;52.182;8.716;2022-12-05T17:26:14;41.30;;;27.90;;
24567;SDS011;12731;52.182;8.716;2022-12-05T17:28:41;48.00;;;31.55;;
24567;SDS011;12731;52.182;8.716;2022-12-05T17:31:15;69.38;;;41.53;;
24567;SDS011;12731;52.182;8.716;2022-12-05T17:33:45;39.65;;;27.52;;
24567;SDS011;12731;52.182;8.716;2022-12-05T17:36:12;49.35;;;29.63;;
24567;SDS011;12731;52.182;8.716;2022-12-05T17:38:39;52.50;;;32.75;;
24567;SDS011;12731;52.182;8.716;2022-12-05T17:41:06;58.65;;;37.40;;
24567;SDS011;12731;52.182;8.716;2022-12-05T17:43:33;52.45;;;29.88;;
24567;SDS011;12731;52.182;8.716;2022-12-05T17:45:59;43.53;;;30.05;;